createdAt,value
2022-11-18T00:01:31.250Z,99222.94
2022-11-18T00:03:59.237Z,99220.09
2022-11-18T00:06:29.885Z,99208.28
2022-11-18T00:08:59.301Z,99208.59
2022-11-18T00:11:47.206Z,99215.47
2022-11-18T00:14:21.301Z,99221.47
2022-11-18T00:17:02.445Z,99214.13
2022-11-18T00:19:32.944Z,99224.84
2022-11-18T00:22:01.728Z,99231.25
2022-11-18T00:24:29.663Z,99220.41
2022-11-18T00:26:58.036Z,99218.84
2022-11-18T00:29:28.751Z,99215.75
2022-11-18T00:31:59.250Z,99217.88
2022-11-18T00:34:27.301Z,99222.16
2022-11-18T00:36:56.737Z,99216.16
2022-11-18T00:39:25.247Z,99219.28
2022-11-18T00:42:12.170Z,99215.16
2022-11-18T00:44:40.217Z,99209.78
2022-11-18T00:47:08.483Z,99204.19
2022-11-18T00:49:36.442Z,99209.75
2022-11-18T00:52:05.983Z,99211.63
2022-11-18T00:54:33.892Z,99213.53
2022-11-18T00:57:02.227Z,99211.97
2022-11-18T00:59:30.093Z,99213.16
2022-11-18T01:01:58.882Z,99212.59
2022-11-18T01:04:26.805Z,99210.75
2022-11-18T01:06:57.453Z,99191.59
2022-11-18T01:09:25.443Z,99180.34
2022-11-18T01:12:12.596Z,99181.19
2022-11-18T01:14:40.572Z,99182.59
2022-11-18T01:17:10.004Z,99192.25
2022-11-18T01:19:37.945Z,99197.56
2022-11-18T01:22:07.310Z,99202.66
2022-11-18T01:24:35.473Z,99200.28
2022-11-18T01:27:04.015Z,99194.56
2022-11-18T01:29:32.017Z,99189.63
2022-11-18T01:34:48.452Z,99191.94
2022-11-18T01:37:16.923Z,99188.47
2022-11-18T01:39:44.853Z,99176.53
2022-11-18T01:42:16.750Z,99176.47
2022-11-18T01:45:11.122Z,99176.31
2022-11-18T01:47:50.482Z,99159.25
2022-11-18T01:50:20.878Z,99152.03
2022-11-18T01:52:51.967Z,99151.63
2022-11-18T01:55:26.522Z,99139.72
2022-11-18T01:58:03.960Z,99128.81
2022-11-18T02:00:31.892Z,99126.13
2022-11-18T02:03:02.283Z,99115.09
2022-11-18T02:05:32.020Z,99106.69
2022-11-18T02:08:01.982Z,99098.72
2022-11-18T02:10:29.929Z,99077.75
2022-11-18T02:13:00.549Z,99073.97
2022-11-18T02:16:03.631Z,99052.13
2022-11-18T02:18:55.167Z,99051.75
2022-11-18T02:21:57.786Z,99045.19
2022-11-18T02:24:53.159Z,99034.13
2022-11-18T02:27:47.579Z,99024.41
2022-11-18T02:30:18.879Z,99019.19
2022-11-18T02:33:11.019Z,99024.53
2022-11-18T02:35:56.868Z,99015.03
2022-11-18T02:38:34.267Z,99002.97
2022-11-18T02:41:10.796Z,99006.84
2022-11-18T02:43:48.147Z,99006.53
2022-11-18T02:46:39.908Z,99008.78
2022-11-18T02:49:13.519Z,98997.84
2022-11-18T02:51:44.040Z,99008.75
2022-11-18T02:54:14.028Z,98999.50
2022-11-18T02:56:43.059Z,99007.34
2022-11-18T02:59:10.860Z,99000.16
2022-11-18T03:01:39.855Z,99001.47
2022-11-18T03:04:07.698Z,99012.69
2022-11-18T03:06:40.343Z,99026.44
2022-11-18T03:09:38.607Z,99023.50
2022-11-18T03:12:47.727Z,99026.13
2022-11-18T03:15:49.157Z,99032.66
2022-11-18T03:18:42.808Z,99055.09
2022-11-18T03:21:18.177Z,99074.47
2022-11-18T03:24:28.467Z,99076.41
2022-11-18T03:27:24.417Z,99071.09
2022-11-18T03:30:21.288Z,99048.16
2022-11-18T03:33:12.728Z,99040.31
2022-11-18T03:35:45.949Z,99029.13
2022-11-18T03:38:19.549Z,99013.66
2022-11-18T03:40:53.448Z,99019.16
2022-11-18T03:43:26.823Z,99005.38
2022-11-18T03:46:08.416Z,98990.06
2022-11-18T03:48:41.607Z,98967.91
2022-11-18T03:51:14.919Z,98972.03
2022-11-18T03:53:48.228Z,98975.81
2022-11-18T03:56:23.387Z,98979.22
2022-11-18T03:59:04.519Z,98970.69
2022-11-18T04:01:41.545Z,98973.38
2022-11-18T04:04:10.669Z,98974.91
2022-11-18T04:06:46.448Z,98999.38
2022-11-18T04:09:20.660Z,99001.09
2022-11-18T04:12:03.966Z,99015.34
2022-11-18T04:14:38.157Z,99010.56
2022-11-18T04:17:12.377Z,99008.94
2022-11-18T04:19:41.488Z,99012.84
2022-11-18T04:22:11.539Z,99007.75
2022-11-18T04:24:39.939Z,99009.00
2022-11-18T04:27:09.429Z,99011.16
2022-11-18T04:29:37.691Z,99010.72
2022-11-18T04:32:07.179Z,99019.03
2022-11-18T04:34:35.107Z,99016.88
2022-11-18T04:37:04.035Z,99014.31
2022-11-18T04:39:31.988Z,99007.63
2022-11-18T04:42:00.320Z,98992.28
2022-11-18T04:44:33.598Z,98986.66
2022-11-18T04:47:04.648Z,98985.56
2022-11-18T04:49:34.108Z,98982.00
2022-11-18T04:52:04.208Z,98977.47
2022-11-18T04:54:32.649Z,98983.88
2022-11-18T04:57:00.977Z,98987.56
2022-11-18T04:59:30.329Z,98974.75
2022-11-18T05:02:01.223Z,98972.78
2022-11-18T05:04:32.753Z,98979.84
2022-11-18T05:07:04.131Z,98981.91
2022-11-18T05:09:32.758Z,98986.28
2022-11-18T05:12:20.808Z,98983.38
2022-11-18T05:14:50.780Z,98981.72
2022-11-18T05:17:20.191Z,98981.94
2022-11-18T05:19:49.096Z,98979.13
2022-11-18T05:22:17.340Z,98973.06
2022-11-18T05:24:45.427Z,98972.19
2022-11-18T05:27:14.816Z,98979.78
2022-11-18T05:29:42.822Z,98972.53
2022-11-18T05:32:11.131Z,98970.69
2022-11-18T05:34:40.942Z,98959.25
2022-11-18T05:37:09.421Z,98957.53
2022-11-18T05:39:37.360Z,98964.16
2022-11-18T05:42:24.741Z,98958.84
2022-11-18T05:44:57.866Z,98959.25
2022-11-18T05:47:27.482Z,98962.78
2022-11-18T05:49:55.456Z,98971.81
2022-11-18T05:52:23.701Z,98970.53
2022-11-18T05:54:52.029Z,98975.84
2022-11-18T05:57:20.249Z,98982.72
2022-11-18T05:59:48.220Z,98980.09
2022-11-18T06:02:24.686Z,98994.38
2022-11-18T06:04:59.850Z,98992.53
2022-11-18T06:07:36.124Z,99003.66
2022-11-18T06:10:06.802Z,99001.81
2022-11-18T06:12:41.499Z,98994.69
2022-11-18T06:15:18.981Z,98997.06
2022-11-18T06:18:00.687Z,99002.44
2022-11-18T06:20:29.649Z,99002.00
2022-11-18T06:22:58.878Z,99011.69
2022-11-18T06:25:27.350Z,99011.16
2022-11-18T06:27:59.790Z,99003.06
2022-11-18T06:30:28.199Z,99010.91
2022-11-18T06:32:56.544Z,99002.00
2022-11-18T06:35:24.620Z,99014.00
2022-11-18T06:37:52.950Z,99017.28
2022-11-18T06:40:21.014Z,99012.22
2022-11-18T06:43:08.090Z,99029.94
2022-11-18T06:45:36.310Z,99024.78
2022-11-18T06:48:04.939Z,99018.75
2022-11-18T06:50:32.939Z,99025.41
2022-11-18T06:53:02.634Z,99021.28
2022-11-18T06:55:30.533Z,99032.16
2022-11-18T06:57:59.942Z,99026.78
2022-11-18T07:00:28.129Z,99021.97
2022-11-18T07:02:57.167Z,99019.09
2022-11-18T07:05:25.301Z,99027.81
2022-11-18T07:07:53.708Z,99027.41
2022-11-18T07:10:22.263Z,99030.13
2022-11-18T07:12:50.598Z,99040.19
2022-11-18T07:15:18.621Z,99041.34
2022-11-18T07:17:46.951Z,99052.66
2022-11-18T07:20:15.282Z,99054.16
2022-11-18T07:22:43.578Z,99058.81
2022-11-18T07:25:11.572Z,99068.69
2022-11-18T07:27:39.988Z,99067.59
2022-11-18T07:30:08.487Z,99073.41
2022-11-18T07:32:37.268Z,99076.84
2022-11-18T07:35:05.668Z,99082.16
2022-11-18T07:37:33.978Z,99082.91
2022-11-18T07:40:02.188Z,99087.81
2022-11-18T07:42:42.878Z,99090.38
2022-11-18T07:45:27.979Z,99104.25
2022-11-18T07:47:56.378Z,99104.50
2022-11-18T07:50:24.349Z,99117.31
2022-11-18T07:52:57.399Z,99116.53
2022-11-18T07:55:30.841Z,99121.44
2022-11-18T07:58:00.479Z,99109.47
2022-11-18T08:00:28.833Z,99107.16
2022-11-18T08:02:57.181Z,99107.53
2022-11-18T08:05:25.679Z,99110.03
2022-11-18T08:07:53.999Z,99103.06
2022-11-18T08:10:21.979Z,99104.41
2022-11-18T08:12:51.428Z,99104.56
2022-11-18T08:15:19.389Z,99102.38
2022-11-18T08:17:49.629Z,99102.41
2022-11-18T08:20:18.189Z,99105.38
2022-11-18T08:22:46.691Z,99097.75
2022-11-18T08:25:15.148Z,99089.72
2022-11-18T08:27:43.469Z,99087.13
2022-11-18T08:30:12.173Z,99093.31
2022-11-18T08:32:40.510Z,99095.63
2022-11-18T08:35:11.263Z,99100.09
2022-11-18T08:37:41.107Z,99094.13
2022-11-18T08:40:09.956Z,99093.69
2022-11-18T08:42:38.842Z,99092.78
2022-11-18T08:45:10.123Z,99087.50
2022-11-18T08:47:38.482Z,99100.84
2022-11-18T08:50:09.638Z,99082.63
2022-11-18T08:52:39.286Z,99082.09
2022-11-18T08:55:08.119Z,99083.06
2022-11-18T08:57:36.454Z,99093.25
2022-11-18T09:00:06.051Z,99096.16
2022-11-18T09:02:34.413Z,99085.44
2022-11-18T09:05:02.499Z,99095.16
2022-11-18T09:07:30.966Z,99091.28
2022-11-18T09:09:58.959Z,99095.91
2022-11-18T09:12:28.612Z,99097.34
2022-11-18T09:15:13.753Z,99101.97
2022-11-18T09:17:43.029Z,99103.88
2022-11-18T09:20:19.928Z,99105.38
2022-11-18T09:22:47.967Z,99088.56
2022-11-18T09:25:16.458Z,99093.97
2022-11-18T09:27:44.958Z,99091.28
2022-11-18T09:30:13.814Z,99096.34
2022-11-18T09:32:41.812Z,99097.00
2022-11-18T09:35:10.120Z,99109.34
2022-11-18T09:37:38.003Z,99097.13
2022-11-18T09:40:07.049Z,99100.16
2022-11-18T09:42:46.181Z,99107.81
2022-11-18T09:45:25.480Z,99116.69
2022-11-18T09:47:59.215Z,99118.59
2022-11-18T09:53:19.630Z,99102.84
2022-11-18T09:55:50.380Z,99106.34
2022-11-18T09:58:34.330Z,99100.53
2022-11-18T10:01:04.775Z,99102.78
2022-11-18T10:03:34.152Z,99115.59
2022-11-18T10:06:10.811Z,99107.44
2022-11-18T10:09:11.286Z,99108.66
2022-11-18T10:12:02.341Z,99107.00
2022-11-18T10:14:43.089Z,99109.06
2022-11-18T10:17:42.411Z,99110.34
2022-11-18T10:20:42.342Z,99105.59
2022-11-18T10:23:32.180Z,99106.59
2022-11-18T10:26:00.141Z,99098.19
2022-11-18T10:28:30.820Z,99098.31
2022-11-18T10:31:11.119Z,99095.59
2022-11-18T10:33:39.789Z,99093.00
2022-11-18T10:36:16.810Z,99095.47
2022-11-18T10:38:49.930Z,99093.97
2022-11-18T10:41:22.180Z,99084.63
2022-11-18T10:43:58.071Z,99084.47
2022-11-18T10:46:29.052Z,99088.22
2022-11-18T10:49:10.552Z,99081.84
2022-11-18T10:51:44.091Z,99083.56
2022-11-18T10:54:22.790Z,99080.59
2022-11-18T10:57:06.489Z,99080.28
2022-11-18T10:59:51.254Z,99078.88
2022-11-18T11:02:25.339Z,99079.25
2022-11-18T11:04:54.349Z,99081.75
2022-11-18T11:07:37.369Z,99077.28
2022-11-18T11:10:23.277Z,99079.44
2022-11-18T11:13:14.695Z,99081.88
2022-11-18T11:15:51.825Z,99077.03
2022-11-18T11:18:42.125Z,99076.22
2022-11-18T11:21:13.846Z,99084.13
2022-11-18T11:23:44.075Z,99086.38
2022-11-18T11:29:31.793Z,99091.19
2022-11-18T11:32:34.164Z,99087.56
2022-11-18T11:35:23.662Z,99091.66
2022-11-18T11:37:57.735Z,99087.72
2022-11-18T11:40:34.605Z,99102.56
2022-11-18T11:43:34.854Z,99089.94
2022-11-18T11:46:20.769Z,99094.03
2022-11-18T11:49:07.202Z,99089.84
2022-11-18T11:52:02.927Z,99097.31
2022-11-18T11:54:52.745Z,99094.28
2022-11-18T11:57:41.516Z,99091.97
2022-11-18T12:00:16.618Z,99105.19
2022-11-18T12:02:47.955Z,99093.34
2022-11-18T12:05:39.734Z,99089.13
2022-11-18T12:08:15.349Z,99089.19
2022-11-18T12:11:07.893Z,99085.03
2022-11-18T12:13:39.047Z,99083.09
2022-11-18T12:16:41.438Z,99087.44
2022-11-18T12:19:15.300Z,99087.13
2022-11-18T12:21:45.811Z,99096.34
2022-11-18T12:24:35.754Z,99095.13
2022-11-18T12:27:35.205Z,99100.63
2022-11-18T12:30:04.508Z,99104.75
2022-11-18T12:32:46.924Z,99101.53
2022-11-18T12:35:48.855Z,99099.19
2022-11-18T12:38:32.555Z,99103.09
2022-11-18T12:41:20.505Z,99104.59
2022-11-18T12:43:51.247Z,99116.06
2022-11-18T12:46:44.447Z,99098.91
2022-11-18T12:49:22.288Z,99097.50
2022-11-18T12:51:58.207Z,99095.03
2022-11-18T12:54:46.867Z,99088.91
2022-11-18T12:57:33.605Z,99087.34
2022-11-18T13:00:17.456Z,99079.75
2022-11-18T13:02:57.016Z,99085.16
2022-11-18T13:05:28.437Z,99086.47
2022-11-18T13:08:19.676Z,99097.31
2022-11-18T13:11:18.478Z,99095.56
2022-11-18T13:13:47.378Z,99096.13
2022-11-18T13:16:41.766Z,99103.06
2022-11-18T13:19:09.912Z,99106.88
2022-11-18T13:21:56.816Z,99113.81
2022-11-18T13:24:25.265Z,99100.91
2022-11-18T13:26:59.756Z,99102.69
2022-11-18T13:29:30.266Z,99100.41
2022-11-18T13:32:10.365Z,99105.47
2022-11-18T13:34:48.253Z,99102.38
2022-11-18T13:37:21.511Z,99097.50
2022-11-18T13:39:50.267Z,99101.63
2022-11-18T13:42:30.570Z,99109.88
2022-11-18T13:45:01.797Z,99108.41
2022-11-18T13:47:43.137Z,99115.47
2022-11-18T13:50:11.000Z,99109.28
2022-11-18T13:53:03.927Z,99112.59
2022-11-18T13:55:37.108Z,99109.34
2022-11-18T13:58:40.205Z,99113.13
2022-11-18T14:01:21.012Z,99123.81
2022-11-18T14:03:55.079Z,99117.50
2022-11-18T14:06:30.709Z,99125.00
2022-11-18T14:09:21.289Z,99141.09
2022-11-18T14:12:07.849Z,99141.22
2022-11-18T14:14:41.480Z,99134.50
2022-11-18T14:17:19.125Z,99138.38
2022-11-18T14:20:16.750Z,99141.22
2022-11-18T14:22:45.265Z,99139.56
2022-11-18T14:25:20.757Z,99138.78
2022-11-18T14:27:53.747Z,99144.69
2022-11-18T14:30:28.016Z,99145.78
2022-11-18T14:33:16.326Z,99147.84
2022-11-18T14:35:54.536Z,99147.44
2022-11-18T14:41:44.488Z,99151.09
2022-11-18T14:44:14.160Z,99141.34
2022-11-18T14:46:45.600Z,99148.13
2022-11-18T14:49:19.864Z,99146.16
2022-11-18T14:51:50.500Z,99154.38
2022-11-18T14:54:25.881Z,99152.81
2022-11-18T14:57:06.312Z,99145.69
2022-11-18T14:59:34.227Z,99149.75
2022-11-18T15:02:03.905Z,99149.41
2022-11-18T15:04:31.940Z,99149.19
2022-11-18T15:07:00.207Z,99160.88
2022-11-18T15:09:28.095Z,99159.81
2022-11-18T15:11:56.219Z,99167.47
2022-11-18T15:14:24.196Z,99166.63
2022-11-18T15:16:52.527Z,99167.41
2022-11-18T15:19:20.476Z,99175.44
2022-11-18T15:21:48.877Z,99178.16
2022-11-18T15:24:17.044Z,99188.34
2022-11-18T15:26:48.437Z,99192.78
2022-11-18T15:29:19.265Z,99195.06
2022-11-18T15:31:48.423Z,99191.78
2022-11-18T15:34:19.281Z,99196.00
2022-11-18T15:36:47.695Z,99198.63
2022-11-18T15:39:15.716Z,99200.66
2022-11-18T15:41:44.847Z,99207.56
2022-11-18T15:44:13.088Z,99212.16
2022-11-18T15:46:42.066Z,99215.63
2022-11-18T15:49:15.089Z,99212.16
2022-11-18T15:51:43.714Z,99212.56
2022-11-18T15:54:11.721Z,99212.56
2022-11-18T15:56:40.181Z,99210.63
2022-11-18T15:59:12.138Z,99218.34
2022-11-18T16:01:43.166Z,99207.91
2022-11-18T16:04:13.904Z,99204.47
2022-11-18T16:06:46.238Z,99202.94
2022-11-18T16:09:16.982Z,99188.66
2022-11-18T16:12:04.255Z,99186.34
2022-11-18T16:14:32.246Z,99197.53
2022-11-18T16:17:00.505Z,99196.78
2022-11-18T16:19:31.818Z,99193.72
2022-11-18T16:22:00.250Z,99202.16
2022-11-18T16:24:29.927Z,99198.72
2022-11-18T16:26:58.098Z,99200.63
2022-11-18T16:29:26.273Z,99205.25
2022-11-18T16:31:55.037Z,99214.84
2022-11-18T16:34:29.008Z,99222.56
2022-11-18T16:37:01.422Z,99224.84
2022-11-18T16:39:30.006Z,99233.66
2022-11-18T16:42:07.423Z,99242.84
2022-11-18T16:44:38.155Z,99253.25
2022-11-18T16:47:13.818Z,99262.84
2022-11-18T16:49:43.424Z,99272.59
2022-11-18T16:52:11.908Z,99290.53
2022-11-18T16:54:45.143Z,99296.19
2022-11-18T16:57:15.729Z,99302.00
2022-11-18T16:59:43.684Z,99301.41
2022-11-18T17:02:13.786Z,99316.75
2022-11-18T17:04:42.392Z,99315.47
2022-11-18T17:07:10.633Z,99312.97
2022-11-18T17:09:39.386Z,99319.69
2022-11-18T17:12:08.066Z,99308.50
2022-11-18T17:14:38.335Z,99301.41
2022-11-18T17:17:07.592Z,99304.84
2022-11-18T17:19:35.574Z,99317.41
2022-11-18T17:22:03.870Z,99318.41
2022-11-18T17:24:31.863Z,99318.88
2022-11-18T17:27:00.200Z,99327.00
2022-11-18T17:29:28.166Z,99330.31
2022-11-18T17:31:56.963Z,99334.28
2022-11-18T17:34:24.959Z,99336.84
2022-11-18T17:36:53.196Z,99341.31
2022-11-18T17:39:21.296Z,99343.50
2022-11-18T17:42:08.186Z,99351.09
2022-11-18T17:44:36.134Z,99357.13
2022-11-18T17:47:04.538Z,99366.50
2022-11-18T17:49:32.626Z,99383.09
2022-11-18T17:52:01.015Z,99382.66
2022-11-18T17:54:28.905Z,99395.81
2022-11-18T17:56:57.212Z,99400.00
2022-11-18T17:59:25.121Z,99405.41
2022-11-18T18:01:59.233Z,99406.06
2022-11-18T18:04:27.931Z,99403.69
2022-11-18T18:06:56.168Z,99402.47
2022-11-18T18:09:30.042Z,99402.19
2022-11-18T18:12:00.922Z,99417.31
2022-11-18T18:14:28.875Z,99410.34
2022-11-18T18:16:57.271Z,99412.56
2022-11-18T18:19:25.693Z,99400.41
2022-11-18T18:21:53.929Z,99401.72
2022-11-18T18:24:22.474Z,99401.50
2022-11-18T18:26:51.102Z,99403.97
2022-11-18T18:29:19.339Z,99401.25
2022-11-18T18:31:47.596Z,99398.72
2022-11-18T18:34:15.615Z,99397.47
2022-11-18T18:36:44.052Z,99385.78
2022-11-18T18:39:11.933Z,99382.97
2022-11-18T18:41:40.147Z,99379.47
2022-11-18T18:44:08.497Z,99382.81
2022-11-18T18:46:39.759Z,99383.09
2022-11-18T18:49:13.827Z,99391.78
2022-11-18T18:51:43.608Z,99391.72
2022-11-18T18:54:16.285Z,99395.75
2022-11-18T18:56:44.731Z,99395.41
2022-11-18T18:59:12.714Z,99391.06
2022-11-18T19:01:41.315Z,99389.84
2022-11-18T19:04:13.755Z,99391.47
2022-11-18T19:06:56.790Z,99387.56
2022-11-18T19:09:27.336Z,99383.44
2022-11-18T19:12:15.018Z,99389.25
2022-11-18T19:14:43.049Z,99388.44
2022-11-18T19:17:12.706Z,99392.59
2022-11-18T19:20:01.093Z,99393.00
2022-11-18T19:22:31.606Z,99400.91
2022-11-18T19:25:00.441Z,99389.03
2022-11-18T19:27:30.730Z,99391.69
2022-11-18T19:29:58.802Z,99384.25
2022-11-18T19:32:27.102Z,99392.25
2022-11-18T19:34:55.424Z,99364.19
2022-11-18T19:37:24.273Z,99387.59
2022-11-18T19:39:52.214Z,99402.00
2022-11-18T19:42:20.513Z,99399.78
2022-11-18T19:44:48.396Z,99395.06
2022-11-18T19:47:17.268Z,99401.00
2022-11-18T19:49:45.264Z,99388.13
2022-11-18T19:52:13.549Z,99401.22
2022-11-18T19:54:41.599Z,99399.44
2022-11-18T19:57:09.906Z,99408.63
2022-11-18T19:59:38.091Z,99417.19
2022-11-18T20:02:07.595Z,99425.00
2022-11-18T20:04:36.725Z,99426.00
2022-11-18T20:07:05.219Z,99430.44
2022-11-18T20:09:33.425Z,99427.31
2022-11-18T20:12:01.656Z,99420.81
2022-11-18T20:14:29.524Z,99428.81
2022-11-18T20:16:57.812Z,99447.19
2022-11-18T20:19:25.844Z,99452.09
2022-11-18T20:21:54.655Z,99455.69
2022-11-18T20:24:22.806Z,99455.47
2022-11-18T20:26:51.026Z,99469.25
2022-11-18T20:29:19.240Z,99457.22
2022-11-18T20:31:47.834Z,99448.78
2022-11-18T20:34:15.896Z,99452.34
2022-11-18T20:36:44.729Z,99460.06
2022-11-18T20:39:15.839Z,99450.75
2022-11-18T20:42:04.864Z,99454.50
2022-11-18T20:44:32.993Z,99459.13
2022-11-18T20:47:01.874Z,99473.66
2022-11-18T20:49:29.953Z,99472.53
2022-11-18T20:51:58.324Z,99481.84
2022-11-18T20:54:26.305Z,99484.13
2022-11-18T20:56:54.757Z,99492.03
2022-11-18T20:59:23.603Z,99493.56
2022-11-18T21:01:52.005Z,99494.34
2022-11-18T21:04:19.943Z,99486.13
2022-11-18T21:06:48.165Z,99479.00
2022-11-18T21:09:18.008Z,99473.28
2022-11-18T21:11:46.503Z,99479.72
2022-11-18T21:14:23.549Z,99479.06
2022-11-18T21:16:55.760Z,99484.75
2022-11-18T21:19:27.102Z,99473.75
2022-11-18T21:21:56.773Z,99471.06
2022-11-18T21:24:29.193Z,99486.84
2022-11-18T21:26:58.866Z,99481.56
2022-11-18T21:29:29.084Z,99479.31
2022-11-18T21:32:02.479Z,99480.97
2022-11-18T21:34:30.622Z,99493.13
2022-11-18T21:36:58.977Z,99487.38
2022-11-18T21:39:27.785Z,99478.69
2022-11-18T21:41:57.358Z,99489.25
2022-11-18T21:44:28.684Z,99493.03
2022-11-18T21:46:58.454Z,99484.88
2022-11-18T21:49:26.395Z,99485.66
2022-11-18T21:51:54.675Z,99482.66
2022-11-18T21:54:23.125Z,99482.41
2022-11-18T21:56:51.485Z,99488.34
2022-11-18T21:59:19.698Z,99495.50
2022-11-18T22:01:48.355Z,99502.28
2022-11-18T22:04:36.392Z,99497.75
2022-11-18T22:07:05.732Z,99503.81
2022-11-18T22:09:36.701Z,99507.59
2022-11-18T22:12:07.654Z,99511.31
2022-11-18T22:14:36.476Z,99514.72
2022-11-18T22:17:05.511Z,99519.88
2022-11-18T22:19:34.198Z,99514.63
2022-11-18T22:22:02.572Z,99528.88
2022-11-18T22:24:30.479Z,99519.38
2022-11-18T22:26:59.900Z,99525.00
2022-11-18T22:29:27.932Z,99521.28
2022-11-18T22:31:56.295Z,99526.53
2022-11-18T22:34:24.439Z,99531.53
2022-11-18T22:36:52.807Z,99539.41
2022-11-18T22:39:21.203Z,99551.50
2022-11-18T22:42:08.487Z,99547.94
2022-11-18T22:44:36.689Z,99548.97
2022-11-18T22:47:05.179Z,99552.44
2022-11-18T22:49:33.370Z,99568.56
2022-11-18T22:52:02.209Z,99566.41
2022-11-18T22:54:39.388Z,99565.09
2022-11-18T22:57:09.181Z,99571.59
2022-11-18T22:59:37.717Z,99573.06
2022-11-18T23:02:07.468Z,99571.97
2022-11-18T23:04:35.575Z,99569.41
2022-11-18T23:07:04.631Z,99569.72
2022-11-18T23:09:32.878Z,99576.28
2022-11-18T23:12:19.726Z,99588.66
2022-11-18T23:14:47.789Z,99588.56
2022-11-18T23:17:16.213Z,99596.41
2022-11-18T23:19:45.055Z,99598.06
2022-11-18T23:22:13.701Z,99598.81
2022-11-18T23:24:41.879Z,99604.69
2022-11-18T23:27:10.210Z,99606.22
2022-11-18T23:29:38.730Z,99608.69
2022-11-18T23:32:07.237Z,99611.53
2022-11-18T23:34:35.226Z,99609.88
2022-11-18T23:37:04.716Z,99605.41
2022-11-18T23:39:32.766Z,99610.03
2022-11-18T23:42:01.228Z,99609.28
2022-11-18T23:44:47.418Z,99612.16
2022-11-18T23:47:16.087Z,99614.47
2022-11-18T23:49:44.127Z,99613.97
2022-11-18T23:52:15.575Z,99613.84
2022-11-18T23:54:43.640Z,99621.41
2022-11-18T23:57:12.929Z,99625.13
2022-11-18T23:59:40.927Z,99609.19
